createdAt,value
2023-04-27T12:00:59.066Z,98087.48
2023-04-27T12:03:28.567Z,98089.30
2023-04-27T12:05:56.761Z,98088.23
2023-04-27T12:08:27.104Z,98086.70
2023-04-27T12:10:55.406Z,98085.46
2023-04-27T12:13:22.843Z,98089.19
2023-04-27T12:15:50.255Z,98089.02
2023-04-27T12:18:17.255Z,98088.90
2023-04-27T12:20:52.643Z,98091.30
2023-04-27T12:23:19.713Z,98086.80
2023-04-27T12:25:46.540Z,98087.16
2023-04-27T12:28:18.483Z,98086.03
2023-04-27T12:30:45.756Z,98083.83
2023-04-27T12:33:12.892Z,98084.78
2023-04-27T12:35:39.883Z,98086.67
2023-04-27T12:38:07.222Z,98086.91
2023-04-27T12:40:35.130Z,98083.14
2023-04-27T12:43:02.064Z,98079.48
2023-04-27T12:45:29.103Z,98078.46
2023-04-27T12:48:03.368Z,98078.96
2023-04-27T12:50:33.224Z,98075.35
2023-04-27T12:53:00.514Z,98079.13
2023-04-27T12:55:33.770Z,98076.59
2023-04-27T12:58:02.183Z,98080.30
2023-04-27T13:00:30.881Z,98079.76
2023-04-27T13:02:58.162Z,98086.84
2023-04-27T13:13:59.717Z,98078.07
2023-04-27T13:24:59.494Z,98084.93
2023-04-27T13:35:34.358Z,98089.42
2023-04-27T13:46:32.174Z,98090.42
2023-04-27T13:57:36.838Z,98101.17
2023-04-27T14:12:54.271Z,98113.89
2023-04-27T14:19:40.875Z,98111.40
2023-04-27T14:26:25.170Z,98114.12
2023-04-27T14:29:32.367Z,98115.60
2023-04-27T14:36:17.884Z,98124.50
2023-04-27T14:39:27.539Z,98124.11
2023-04-27T14:50:11.866Z,98135.30
2023-04-27T14:56:58.689Z,98137.14
2023-04-27T15:04:35.350Z,98147.20
2023-04-27T15:11:19.077Z,98151.42
2023-04-27T15:22:23.079Z,98153.48
2023-04-27T15:33:10.132Z,98162.48
2023-04-27T15:36:18.536Z,98165.09
2023-04-27T15:43:04.411Z,98165.59
2023-04-27T15:53:45.579Z,98177.23
2023-04-27T15:56:52.831Z,98193.12
2023-04-27T16:03:37.793Z,98199.02
2023-04-27T16:06:38.497Z,98201.94
2023-04-27T16:13:23.414Z,98208.18
2023-04-27T16:16:26.974Z,98211.92
2023-04-27T16:32:14.182Z,98237.56
2023-04-27T16:38:58.222Z,98250.66
2023-04-27T16:49:22.354Z,98254.35
2023-04-27T16:52:32.084Z,98256.27
2023-04-27T16:59:16.655Z,98258.56
2023-04-27T17:02:40.510Z,98263.30
2023-04-27T17:09:26.276Z,98291.55
2023-04-27T17:12:26.479Z,98297.14
2023-04-27T17:19:12.866Z,98307.47
2023-04-27T17:22:35.580Z,98312.20
2023-04-27T17:29:21.122Z,98325.83
2023-04-27T17:32:22.937Z,98330.54
2023-04-27T17:39:07.042Z,98344.66
2023-04-27T17:42:26.410Z,98355.95
2023-04-27T17:49:10.548Z,98370.79
2023-04-27T17:52:13.939Z,98373.02
2023-04-27T17:58:59.667Z,98392.14
2023-04-27T18:09:06.214Z,98410.52
2023-04-27T18:20:09.862Z,98431.27
2023-04-27T18:26:57.299Z,98438.03
2023-04-27T18:33:43.936Z,98448.10
2023-04-27T18:53:11.098Z,98479.96
2023-04-27T19:04:02.869Z,98490.83
2023-04-27T19:07:14.868Z,98498.70
2023-04-27T19:14:02.817Z,98504.04
2023-04-27T19:20:51.854Z,98510.80
2023-04-27T19:23:33.850Z,98510.64
2023-04-27T19:30:20.910Z,98519.13
2023-04-27T19:37:07.890Z,98520.63
2023-04-27T19:43:55.922Z,98530.88
2023-04-27T19:50:46.021Z,98534.35
2023-04-27T20:05:20.621Z,98543.64
2023-04-27T20:07:52.212Z,98540.83
2023-04-27T20:10:21.499Z,98539.98
2023-04-27T20:12:56.675Z,98540.90
2023-04-27T20:15:25.975Z,98546.58
2023-04-27T20:17:55.675Z,98547.36
2023-04-27T20:20:24.162Z,98547.95
2023-04-27T20:22:52.674Z,98550.02
2023-04-27T20:25:26.186Z,98548.46
2023-04-27T20:27:54.993Z,98554.84
2023-04-27T20:36:59.972Z,98563.30
2023-04-27T20:39:48.180Z,98567.16
2023-04-27T20:42:16.320Z,98563.05
2023-04-27T20:44:48.541Z,98565.55
2023-04-27T20:47:16.926Z,98570.62
2023-04-27T20:49:45.210Z,98574.35
2023-04-27T20:52:14.917Z,98577.31
2023-04-27T20:54:45.061Z,98580.50
2023-04-27T20:57:33.353Z,98581.75
2023-04-27T21:00:01.603Z,98586.08
2023-04-27T21:02:32.316Z,98585.99
2023-04-27T21:05:00.832Z,98587.33
2023-04-27T21:07:31.922Z,98588.20
2023-04-27T21:10:06.320Z,98589.63
2023-04-27T21:12:34.790Z,98589.89
2023-04-27T21:15:04.038Z,98592.73
2023-04-27T21:17:32.322Z,98596.73
2023-04-27T21:20:22.312Z,98598.39
2023-04-27T21:22:50.701Z,98603.64
2023-04-27T21:25:20.225Z,98602.81
2023-04-27T21:28:09.511Z,98601.84
2023-04-27T21:30:37.737Z,98607.59
2023-04-27T21:33:06.697Z,98607.10
2023-04-27T21:35:34.983Z,98612.64
2023-04-27T21:38:03.179Z,98614.41
2023-04-27T21:40:31.507Z,98618.56
2023-04-27T21:42:59.688Z,98621.48
2023-04-27T21:45:27.986Z,98624.66
2023-04-27T21:47:56.214Z,98625.89
2023-04-27T21:50:24.590Z,98627.23
2023-04-27T21:52:52.898Z,98626.80
2023-04-27T21:55:21.141Z,98629.15
2023-04-27T21:57:50.785Z,98629.14
2023-04-27T22:00:19.183Z,98629.55
2023-04-27T22:02:48.619Z,98634.99
2023-04-27T22:05:17.136Z,98635.55
2023-04-27T22:07:46.107Z,98641.22
2023-04-27T22:10:14.522Z,98636.41
2023-04-27T22:12:42.655Z,98640.52
2023-04-27T22:15:11.420Z,98643.47
2023-04-27T22:17:41.127Z,98646.08
2023-04-27T22:20:11.418Z,98647.45
2023-04-27T22:22:39.690Z,98645.75
2023-04-27T22:25:08.397Z,98646.06
2023-04-27T22:27:44.609Z,98646.53
2023-04-27T22:30:14.963Z,98650.64
2023-04-27T22:32:44.979Z,98651.77
2023-04-27T22:35:24.772Z,98650.23
2023-04-27T22:38:00.254Z,98652.17
2023-04-27T22:40:30.206Z,98651.12
2023-04-27T22:42:58.294Z,98651.13
2023-04-27T22:45:26.486Z,98654.29
2023-04-27T22:47:54.652Z,98658.86
2023-04-27T22:50:23.206Z,98659.50
2023-04-27T22:52:53.093Z,98658.02
2023-04-27T22:55:21.296Z,98657.88
2023-04-27T22:57:50.198Z,98657.13
2023-04-27T23:00:18.419Z,98655.77
2023-04-27T23:02:47.974Z,98653.20
2023-04-27T23:05:17.822Z,98654.21
2023-04-27T23:07:47.926Z,98655.54
2023-04-27T23:10:19.029Z,98655.05
2023-04-27T23:12:47.546Z,98652.52
2023-04-27T23:15:16.671Z,98656.15
2023-04-27T23:17:45.092Z,98656.06
2023-04-27T23:20:26.685Z,98655.00
2023-04-27T23:22:56.277Z,98653.01
2023-04-27T23:25:24.784Z,98653.79
2023-04-27T23:27:53.144Z,98653.34
2023-04-27T23:30:22.668Z,98654.23
2023-04-27T23:32:51.092Z,98657.16
2023-04-27T23:35:21.170Z,98658.39
2023-04-27T23:37:49.599Z,98661.91
2023-04-27T23:40:17.951Z,98662.55
2023-04-27T23:42:46.298Z,98664.11
2023-04-27T23:45:14.537Z,98664.31
2023-04-27T23:47:43.126Z,98669.58
2023-04-27T23:50:11.444Z,98674.15
2023-04-27T23:52:39.612Z,98676.61
2023-04-27T23:55:08.585Z,98676.17
2023-04-27T23:57:37.180Z,98674.20
